Time;durP1;ratioP1;P1;durP2;ratioP2;P2;SDS_P1;SDS_P2;PMS_P1;PMS_P2;Temp;Humidity;BMP_temperature;BMP_pressure;BME280_temperature;BME280_humidity;BME280_pressure;Samples;Min_cycle;Max_cycle;Signal;HPM_P1;HPM_P2
2023/01/05 00:01:13;;;;;;;;;;;;;;;;;;5114005;28;836;-69
2023/01/05 00:03:38;;;;;;;;;;;;;;;;;;5133000;28;777;-69
2023/01/05 00:06:09;;;;;;;;;;;;;;;;;;5114378;28;1250;-69
2023/01/05 00:08:34;;;;;;;;;;;;;;;;;;5131852;28;912;-68
2023/01/05 00:22:32;;;;;;;;;;;;;;;;;;5132469;28;660;-69
2023/01/05 00:24:58;;;;;;;;;;;;;;;;;;5131706;28;1008;-68
2023/01/05 00:27:24;;;;;;;;;;;;;;;;;;5113327;28;1186;-68
2023/01/05 00:29:49;;;;;;;;;;;;;;;;;;5112986;28;1467;-68
2023/01/05 00:32:15;;;;;;;;;;;;;;;;;;5131219;28;1938;-68
2023/01/05 00:34:40;;;;;;;;;;;;;;;;;;5113014;27;1195;-68
2023/01/05 00:37:05;;;;;;;;;;;;;;;;;;5116008;27;1264;-68
2023/01/05 00:39:30;;;;;;;;;;;;;;;;;;5116656;27;1095;-69
2023/01/05 00:41:56;;;;;;;;;;;;;;;;;;5117036;27;1267;-68
2023/01/05 00:44:21;;;;;;;;;;;;;;;;;;5116890;27;845;-68
2023/01/05 00:46:46;;;;;;;;;;;;;;;;;;5135012;27;935;-69
2023/01/05 00:49:11;;;;;;;;;;;;;;;;;;5099867;27;1408;-68
2023/01/05 00:51:37;;;;;;;;;;;;;;;;;;5116170;27;1909;-69
2023/01/05 00:54:02;;;;;;;;;;;;;;;;;;5135030;27;978;-69
2023/01/05 00:56:27;;;;;;;;;;;;;;;;;;5116266;27;821;-68
2023/01/05 00:58:53;;;;;;;;;;;;;;;;;;5099504;27;1302;-68
2023/01/05 01:01:19;;;;;;;;;;;;;;;;;;5116400;27;1321;-68
2023/01/05 01:03:45;;;;;;;;;;;;;;;;;;5134925;27;919;-68
2023/01/05 01:06:10;;;;;;;;;;;;;;;;;;5116183;27;1364;-68
2023/01/05 01:08:35;;;;;;;;;;;;;;;;;;5116668;27;836;-69
2023/01/05 01:11:04;;;;;;;;;;;;;;;;;;5116622;27;1969;-68
2023/01/05 01:13:30;;;;;;;;;;;;;;;;;;5134419;27;864;-69
2023/01/05 01:15:55;;;;;;;;;;;;;;;;;;5116268;27;1298;-69
2023/01/05 01:18:22;;;;;;;;;;;;;;;;;;5099104;27;1256;-69
2023/01/05 01:20:47;;;;;;;;;;;;;;;;;;5116126;27;1204;-70
2023/01/05 01:23:12;;;;;;;;;;;;;;;;;;5098882;27;1417;-69
2023/01/05 01:25:38;;;;;;;;;;;;;;;;;;5116016;27;1210;-69
2023/01/05 01:28:04;;;;;;;;;;;;;;;;;;5134965;27;778;-70
2023/01/05 01:30:29;;;;;;;;;;;;;;;;;;5115838;27;1953;-69
2023/01/05 01:32:54;;;;;;;;;;;;;;;;;;5134770;27;1060;-69
2023/01/05 01:35:19;;;;;;;;;;;;;;;;;;5134646;27;848;-69
2023/01/05 01:37:45;;;;;;;;;;;;;;;;;;5118230;27;904;-69
2023/01/05 01:40:10;;;;;;;;;;;;;;;;;;5101486;27;1452;-69
2023/01/05 01:42:36;;;;;;;;;;;;;;;;;;5117857;27;1284;-69
2023/01/05 01:45:10;;;;;;;;;;;;;;;;;;5118135;27;1186;-69
2023/01/05 01:47:50;;;;;;;;;;;;;;;;;;5134717;27;1197;-69
2023/01/05 01:50:21;;;;;;;;;;;;;;;;;;5134031;27;1928;-69
2023/01/05 01:52:48;;;;;;;;;;;;;;;;;;5116250;27;1305;-69
2023/01/05 01:55:13;;;;;;;;;;;;;;;;;;5134354;27;829;-70
2023/01/05 01:57:39;;;;;;;;;;;;;;;;;;5133964;27;1010;-69
2023/01/05 02:00:05;;;;;;;;;;;;;;;;;;5099005;27;1108;-69
2023/01/05 02:02:31;;;;;;;;;;;;;;;;;;5134086;27;978;-69
2023/01/05 02:04:59;;;;;;;;;;;;;;;;;;5134415;27;847;-69
2023/01/05 02:07:24;;;;;;;;;;;;;;;;;;5115630;27;1182;-69
2023/01/05 02:09:50;;;;;;;;;;;;;;;;;;5115290;27;1273;-69
2023/01/05 02:12:34;;;;;;;;;;;;;;;;;;5115274;27;1901;-69
2023/01/05 02:15:18;;;;;;;;;;;;;;;;;;5115708;27;1280;-69
2023/01/05 02:17:46;;;;;;;;;;;;;;;;;;5133821;27;927;-69
2023/01/05 02:20:14;;;;;;;;;;;;;;;;;;5134339;27;899;-69
2023/01/05 02:22:58;;;;;;;;;;;;;;;;;;5115426;27;1312;-69
2023/01/05 02:25:35;;;;;;;;;;;;;;;;;;5115321;27;1235;-69
2023/01/05 02:28:07;;;;;;;;;;;;;;;;;;5133694;27;1069;-69
2023/01/05 02:30:33;;;;;;;;;;;;;;;;;;5133293;27;1902;-68
2023/01/05 02:33:01;;;;;;;;;;;;;;;;;;5115288;27;1258;-69
2023/01/05 02:35:27;;;;;;;;;;;;;;;;;;5114817;27;1210;-69
2023/01/05 02:38:00;;;;;;;;;;;;;;;;;;5115101;27;1225;-69
2023/01/05 02:40:31;;;;;;;;;;;;;;;;;;5133143;27;899;-69
2023/01/05 02:42:56;;;;;;;;;;;;;;;;;;5114807;27;1175;-72
2023/01/05 02:45:22;;;;;;;;;;;;;;;;;;5098300;27;1202;-72
2023/01/05 02:47:48;;;;;;;;;;;;;;;;;;5132858;27;987;-72
2023/01/05 02:50:19;;;;;;;;;;;;;;;;;;5098341;27;1913;-72
2023/01/05 02:52:44;;;;;;;;;;;;;;;;;;5133174;27;951;-72
2023/01/05 02:55:12;;;;;;;;;;;;;;;;;;5133677;27;891;-72
2023/01/05 02:57:49;;;;;;;;;;;;;;;;;;5114693;27;1217;-72
2023/01/05 03:00:21;;;;;;;;;;;;;;;;;;5114348;27;1302;-72
2023/01/05 03:02:48;;;;;;;;;;;;;;;;;;5132771;27;911;-72
2023/01/05 03:05:21;;;;;;;;;;;;;;;;;;5133517;27;868;-72
2023/01/05 03:07:47;;;;;;;;;;;;;;;;;;5114719;27;1154;-72
2023/01/05 03:15:45;;;;;;;;;;;;;;;;;;5133745;27;633;-72
2023/01/05 03:18:12;;;;;;;;;;;;;;;;;;5098943;27;1163;-72
2023/01/05 03:20:40;;;;;;;;;;;;;;;;;;5138498;27;903;-72
2023/01/05 03:37:24;;;;;;;;;;;;;;;;;;5138444;27;702;-72
2023/01/05 03:39:50;;;;;;;;;;;;;;;;;;5137060;27;994;-72
2023/01/05 03:42:15;;;;;;;;;;;;;;;;;;5120065;28;1315;-72
2023/01/05 03:44:43;;;;;;;;;;;;;;;;;;5137849;28;995;-72
2023/01/05 03:47:08;;;;;;;;;;;;;;;;;;5120050;28;1090;-72
2023/01/05 03:49:34;;;;;;;;;;;;;;;;;;5104078;28;1329;-72
2023/01/05 03:52:00;;;;;;;;;;;;;;;;;;5108711;28;1969;-71
2023/01/05 03:54:25;;;;;;;;;;;;;;;;;;5144167;28;998;-73
2023/01/05 03:56:50;;;;;;;;;;;;;;;;;;5125377;28;1222;-72
2023/01/05 03:59:15;;;;;;;;;;;;;;;;;;5114898;28;1218;-72
2023/01/05 04:01:40;;;;;;;;;;;;;;;;;;5089117;28;1219;-72
2023/01/05 04:04:06;;;;;;;;;;;;;;;;;;5133338;28;1297;-73
2023/01/05 04:06:31;;;;;;;;;;;;;;;;;;5115168;28;1394;-72
2023/01/05 04:08:56;;;;;;;;;;;;;;;;;;5117154;28;1183;-72
2023/01/05 04:11:22;;;;;;;;;;;;;;;;;;5137420;27;1878;-72
2023/01/05 04:13:48;;;;;;;;;;;;;;;;;;5122806;27;1112;-71
2023/01/05 04:16:13;;;;;;;;;;;;;;;;;;5110815;27;1275;-72
2023/01/05 04:18:38;;;;;;;;;;;;;;;;;;5129510;27;1238;-72
2023/01/05 04:21:04;;;;;;;;;;;;;;;;;;5146366;27;1064;-72
2023/01/05 04:23:29;;;;;;;;;;;;;;;;;;5136834;27;1175;-73
2023/01/05 04:25:54;;;;;;;;;;;;;;;;;;5135450;27;876;-72
2023/01/05 04:28:19;;;;;;;;;;;;;;;;;;5120280;27;1074;-72
2023/01/05 04:30:47;;;;;;;;;;;;;;;;;;5108405;27;1968;-73
2023/01/05 04:33:13;;;;;;;;;;;;;;;;;;5124920;27;1332;-71
2023/01/05 04:35:38;;;;;;;;;;;;;;;;;;5139937;27;1038;-72
2023/01/05 04:38:03;;;;;;;;;;;;;;;;;;5120134;27;1182;-69
2023/01/05 04:40:28;;;;;;;;;;;;;;;;;;5118030;27;1297;-69
2023/01/05 04:42:54;;;;;;;;;;;;;;;;;;5136325;27;899;-70
2023/01/05 04:45:19;;;;;;;;;;;;;;;;;;5100483;27;1297;-69
2023/01/05 04:47:44;;;;;;;;;;;;;;;;;;5117224;27;1233;-69
2023/01/05 04:50:10;;;;;;;;;;;;;;;;;;5117383;27;1909;-69
2023/01/05 04:52:35;;;;;;;;;;;;;;;;;;5135398;27;915;-69
2023/01/05 04:55:01;;;;;;;;;;;;;;;;;;5135344;27;852;-70
2023/01/05 04:57:26;;;;;;;;;;;;;;;;;;5116891;27;1170;-70
2023/01/05 04:59:51;;;;;;;;;;;;;;;;;;5116941;27;1163;-69
2023/01/05 05:02:16;;;;;;;;;;;;;;;;;;5116911;27;1340;-70
2023/01/05 05:04:42;;;;;;;;;;;;;;;;;;5099240;27;1199;-69
2023/01/05 05:07:07;;;;;;;;;;;;;;;;;;5099484;27;1335;-70
2023/01/05 05:09:32;;;;;;;;;;;;;;;;;;5116281;27;1293;-70
2023/01/05 05:11:57;;;;;;;;;;;;;;;;;;5115798;27;1925;-69
2023/01/05 05:14:23;;;;;;;;;;;;;;;;;;5116316;27;1057;-70
2023/01/05 05:16:48;;;;;;;;;;;;;;;;;;5116070;27;1183;-69
2023/01/05 05:19:13;;;;;;;;;;;;;;;;;;5117024;27;1081;-69
2023/01/05 05:21:39;;;;;;;;;;;;;;;;;;5133654;27;904;-69
2023/01/05 05:24:04;;;;;;;;;;;;;;;;;;5116085;27;1309;-69
2023/01/05 05:26:30;;;;;;;;;;;;;;;;;;5134859;27;829;-70
2023/01/05 05:28:56;;;;;;;;;;;;;;;;;;5115960;27;1172;-69
2023/01/05 05:31:21;;;;;;;;;;;;;;;;;;5134788;27;1894;-69
2023/01/05 05:33:47;;;;;;;;;;;;;;;;;;5115574;27;1289;-70
2023/01/05 05:36:12;;;;;;;;;;;;;;;;;;5134482;27;824;-69
2023/01/05 05:38:37;;;;;;;;;;;;;;;;;;5098568;27;1250;-69
2023/01/05 05:41:03;;;;;;;;;;;;;;;;;;5133977;27;836;-69
2023/01/05 05:43:28;;;;;;;;;;;;;;;;;;5134221;27;1112;-69
2023/01/05 05:45:53;;;;;;;;;;;;;;;;;;5133930;27;937;-69
2023/01/05 05:48:18;;;;;;;;;;;;;;;;;;5115587;27;879;-69
2023/01/05 05:50:44;;;;;;;;;;;;;;;;;;5115108;27;1941;-69
2023/01/05 05:53:09;;;;;;;;;;;;;;;;;;5133588;27;848;-69
2023/01/05 05:55:35;;;;;;;;;;;;;;;;;;5098414;27;1174;-69
2023/01/05 05:58:00;;;;;;;;;;;;;;;;;;5133719;27;907;-70
2023/01/05 06:00:25;;;;;;;;;;;;;;;;;;5115528;27;1340;-69
2023/01/05 06:02:50;;;;;;;;;;;;;;;;;;5133948;27;840;-70
2023/01/05 06:05:16;;;;;;;;;;;;;;;;;;5115706;27;963;-69
2023/01/05 06:07:41;;;;;;;;;;;;;;;;;;5115832;27;1221;-69
2023/01/05 06:10:07;;;;;;;;;;;;;;;;;;5098473;27;1340;-69
2023/01/05 06:12:32;;;;;;;;;;;;;;;;;;5133917;27;1906;-72
2023/01/05 06:14:57;;;;;;;;;;;;;;;;;;5115077;27;1194;-72
2023/01/05 06:17:22;;;;;;;;;;;;;;;;;;5115831;27;994;-73
2023/01/05 06:19:48;;;;;;;;;;;;;;;;;;5133666;27;796;-73
2023/01/05 06:22:13;;;;;;;;;;;;;;;;;;5114976;27;869;-73
2023/01/05 06:24:38;;;;;;;;;;;;;;;;;;5115252;27;930;-72
2023/01/05 06:27:03;;;;;;;;;;;;;;;;;;5097884;27;1391;-73
2023/01/05 06:29:29;;;;;;;;;;;;;;;;;;5133505;27;939;-73
2023/01/05 06:31:54;;;;;;;;;;;;;;;;;;5132972;27;1971;-72
2023/01/05 06:34:19;;;;;;;;;;;;;;;;;;5131784;27;1016;-72
2023/01/05 06:36:44;;;;;;;;;;;;;;;;;;5094096;28;1146;-73
2023/01/05 06:39:10;;;;;;;;;;;;;;;;;;5093992;28;1492;-73
2023/01/05 06:41:35;;;;;;;;;;;;;;;;;;5077430;28;1302;-73
2023/01/05 06:44:00;;;;;;;;;;;;;;;;;;5093889;28;1298;-72
2023/01/05 06:46:26;;;;;;;;;;;;;;;;;;5094600;28;1159;-72
2023/01/05 06:48:51;;;;;;;;;;;;;;;;;;5112249;28;845;-72
2023/01/05 06:51:17;;;;;;;;;;;;;;;;;;5112862;28;1973;-69
2023/01/05 06:53:42;;;;;;;;;;;;;;;;;;5093911;28;1210;-69
2023/01/05 06:56:07;;;;;;;;;;;;;;;;;;5094080;28;880;-69
2023/01/05 06:58:32;;;;;;;;;;;;;;;;;;5093938;28;1245;-70
2023/01/05 07:00:58;;;;;;;;;;;;;;;;;;5093661;28;1159;-69
2023/01/05 07:03:23;;;;;;;;;;;;;;;;;;5094335;28;892;-69
2023/01/05 07:05:48;;;;;;;;;;;;;;;;;;5112214;28;876;-70
2023/01/05 07:08:13;;;;;;;;;;;;;;;;;;5111886;28;884;-69
2023/01/05 07:10:39;;;;;;;;;;;;;;;;;;5112293;28;1976;-69
2023/01/05 07:13:04;;;;;;;;;;;;;;;;;;5093547;28;1545;-70
2023/01/05 07:15:29;;;;;;;;;;;;;;;;;;5093630;28;999;-69
2023/01/05 07:17:54;;;;;;;;;;;;;;;;;;5076645;28;1295;-69
2023/01/05 07:20:20;;;;;;;;;;;;;;;;;;5093913;28;1076;-73
2023/01/05 07:22:45;;;;;;;;;;;;;;;;;;5094009;28;980;-73
2023/01/05 07:25:10;;;;;;;;;;;;;;;;;;5112630;28;1052;-73
2023/01/05 07:27:35;;;;;;;;;;;;;;;;;;5111997;28;829;-73
2023/01/05 07:30:01;;;;;;;;;;;;;;;;;;5093361;28;849;-73
2023/01/05 07:32:26;;;;;;;;;;;;;;;;;;5093838;28;1905;-69
2023/01/05 07:34:52;;;;;;;;;;;;;;;;;;5111942;28;896;-70
2023/01/05 07:37:17;;;;;;;;;;;;;;;;;;5076886;28;1289;-69
2023/01/05 07:39:42;;;;;;;;;;;;;;;;;;5093495;28;987;-70
2023/01/05 07:42:08;;;;;;;;;;;;;;;;;;5111779;28;884;-68
2023/01/05 07:44:33;;;;;;;;;;;;;;;;;;5111547;28;808;-67
2023/01/05 07:46:59;;;;;;;;;;;;;;;;;;5076354;28;1219;-68
2023/01/05 07:49:24;;;;;;;;;;;;;;;;;;5111739;28;872;-68
2023/01/05 07:51:49;;;;;;;;;;;;;;;;;;5111348;28;1910;-67
2023/01/05 07:54:15;;;;;;;;;;;;;;;;;;5077002;28;1254;-68
2023/01/05 07:56:40;;;;;;;;;;;;;;;;;;5111584;28;1360;-68
2023/01/05 07:59:06;;;;;;;;;;;;;;;;;;5101403;28;1092;-68
2023/01/05 08:01:31;;;;;;;;;;;;;;;;;;5122369;28;1147;-68
2023/01/05 08:03:56;;;;;;;;;;;;;;;;;;5095999;28;1210;-68
2023/01/05 08:06:22;;;;;;;;;;;;;;;;;;5113610;28;883;-67
2023/01/05 08:08:47;;;;;;;;;;;;;;;;;;5112463;28;1233;-68
2023/01/05 08:11:17;;;;;;;;;;;;;;;;;;5112618;28;1898;-68
2023/01/05 08:14:01;;;;;;;;;;;;;;;;;;5112796;28;1324;-67
2023/01/05 08:16:27;;;;;;;;;;;;;;;;;;5113299;28;1174;-67
2023/01/05 08:18:53;;;;;;;;;;;;;;;;;;5131711;28;900;-67
2023/01/05 08:21:19;;;;;;;;;;;;;;;;;;5131566;28;844;-67
2023/01/05 08:23:49;;;;;;;;;;;;;;;;;;5095719;28;1257;-67
2023/01/05 08:26:16;;;;;;;;;;;;;;;;;;5112716;28;1178;-67
2023/01/05 08:28:42;;;;;;;;;;;;;;;;;;5113100;28;1242;-67
2023/01/05 08:31:11;;;;;;;;;;;;;;;;;;5131350;28;1901;-67
2023/01/05 08:33:36;;;;;;;;;;;;;;;;;;5113057;28;1372;-67
2023/01/05 08:36:06;;;;;;;;;;;;;;;;;;5130981;28;840;-67
2023/01/05 08:38:31;;;;;;;;;;;;;;;;;;5131804;28;912;-67
2023/01/05 08:40:58;;;;;;;;;;;;;;;;;;5090509;28;1428;-67
2023/01/05 08:43:23;;;;;;;;;;;;;;;;;;5089641;28;1314;-64
2023/01/05 08:45:49;;;;;;;;;;;;;;;;;;5111870;28;1167;-67
2023/01/05 08:48:14;;;;;;;;;;;;;;;;;;5092003;28;1492;-67
2023/01/05 08:50:39;;;;;;;;;;;;;;;;;;5092704;28;1905;-65
2023/01/05 08:53:05;;;;;;;;;;;;;;;;;;5092281;28;1306;-67
2023/01/05 08:55:30;;;;;;;;;;;;;;;;;;5111131;28;916;-67
2023/01/05 08:57:56;;;;;;;;;;;;;;;;;;5095006;28;1464;-67
2023/01/05 09:00:21;;;;;;;;;;;;;;;;;;5114220;28;832;-65
2023/01/05 09:02:47;;;;;;;;;;;;;;;;;;5086296;28;1196;-65
2023/01/05 09:05:12;;;;;;;;;;;;;;;;;;5112384;27;1342;-65
2023/01/05 09:07:38;;;;;;;;;;;;;;;;;;5134776;27;1214;-67
2023/01/05 09:10:03;;;;;;;;;;;;;;;;;;5099291;27;1203;-67
2023/01/05 09:12:29;;;;;;;;;;;;;;;;;;5116558;27;1913;-67
2023/01/05 09:14:54;;;;;;;;;;;;;;;;;;5116526;27;896;-65
2023/01/05 09:17:19;;;;;;;;;;;;;;;;;;5099162;27;1167;-68
2023/01/05 09:19:45;;;;;;;;;;;;;;;;;;5134433;27;812;-68
2023/01/05 09:22:10;;;;;;;;;;;;;;;;;;5099486;27;1223;-68
2023/01/05 09:24:35;;;;;;;;;;;;;;;;;;5115347;27;955;-65
2023/01/05 09:27:02;;;;;;;;;;;;;;;;;;5098139;27;1232;-67
2023/01/05 09:29:27;;;;;;;;;;;;;;;;;;5116195;27;843;-68
2023/01/05 09:31:53;;;;;;;;;;;;;;;;;;5133692;27;1902;-65
2023/01/05 09:34:18;;;;;;;;;;;;;;;;;;5115907;27;1210;-67
2023/01/05 09:36:44;;;;;;;;;;;;;;;;;;5133998;27;847;-65
2023/01/05 09:39:09;;;;;;;;;;;;;;;;;;5115897;27;904;-66
2023/01/05 09:41:42;;;;;;;;;;;;;;;;;;5134047;27;844;-65
2023/01/05 09:44:10;;;;;;;;;;;;;;;;;;5114890;27;1325;-65
2023/01/05 09:46:38;;;;;;;;;;;;;;;;;;5114909;27;1211;-65
2023/01/05 09:49:05;;;;;;;;;;;;;;;;;;5133256;27;859;-65
2023/01/05 09:51:31;;;;;;;;;;;;;;;;;;5115075;27;1978;-65
2023/01/05 09:53:58;;;;;;;;;;;;;;;;;;5115104;27;1068;-66
2023/01/05 09:56:29;;;;;;;;;;;;;;;;;;5133630;27;1019;-66
2023/01/05 09:59:14;;;;;;;;;;;;;;;;;;5115639;27;1203;-66
2023/01/05 10:01:40;;;;;;;;;;;;;;;;;;5116062;27;1039;-66
2023/01/05 10:04:09;;;;;;;;;;;;;;;;;;5114979;27;1219;-66
2023/01/05 10:06:37;;;;;;;;;;;;;;;;;;5133693;27;919;-66
2023/01/05 10:09:03;;;;;;;;;;;;;;;;;;5114900;27;1206;-66
2023/01/05 10:14:23;;;;;;;;;;;;;;;;;;5133945;27;665;-68
2023/01/05 10:16:48;;;;;;;;;;;;;;;;;;5133364;27;875;-68
2023/01/05 10:19:15;;;;;;;;;;;;;;;;;;5133263;27;883;-68
2023/01/05 10:21:46;;;;;;;;;;;;;;;;;;5133344;27;987;-68
2023/01/05 10:24:20;;;;;;;;;;;;;;;;;;5113913;27;1068;-68
2023/01/05 10:26:57;;;;;;;;;;;;;;;;;;5113701;27;1293;-68
2023/01/05 10:29:45;;;;;;;;;;;;;;;;;;5132977;27;844;-68
2023/01/05 10:32:22;;;;;;;;;;;;;;;;;;5103131;27;1957;-67
2023/01/05 10:34:48;;;;;;;;;;;;;;;;;;5132674;27;793;-68
2023/01/05 10:37:31;;;;;;;;;;;;;;;;;;5133448;27;848;-68
2023/01/05 10:40:06;;;;;;;;;;;;;;;;;;5133446;27;793;-68
2023/01/05 10:42:46;;;;;;;;;;;;;;;;;;5115415;27;1234;-68
2023/01/05 10:45:13;;;;;;;;;;;;;;;;;;5132928;27;824;-67
2023/01/05 10:47:39;;;;;;;;;;;;;;;;;;5114963;27;1381;-68
2023/01/05 10:50:24;;;;;;;;;;;;;;;;;;5133105;27;856;-68
2023/01/05 10:52:52;;;;;;;;;;;;;;;;;;5133164;27;836;-67
2023/01/05 10:55:19;;;;;;;;;;;;;;;;;;5114595;27;1506;-65
2023/01/05 10:57:45;;;;;;;;;;;;;;;;;;5114324;27;840;-66
2023/01/05 11:00:12;;;;;;;;;;;;;;;;;;5114010;27;1206;-66
2023/01/05 11:02:40;;;;;;;;;;;;;;;;;;5132635;27;801;-66
2023/01/05 11:05:11;;;;;;;;;;;;;;;;;;5132270;27;983;-65
2023/01/05 11:08:00;;;;;;;;;;;;;;;;;;5114095;27;1201;-65
2023/01/05 11:10:30;;;;;;;;;;;;;;;;;;5113781;27;1897;-66
2023/01/05 11:13:06;;;;;;;;;;;;;;;;;;5132484;27;924;-66
2023/01/05 11:15:33;;;;;;;;;;;;;;;;;;5113636;27;1368;-66
2023/01/05 11:17:59;;;;;;;;;;;;;;;;;;5132009;27;793;-66
2023/01/05 11:20:25;;;;;;;;;;;;;;;;;;5113028;27;1290;-66
2023/01/05 11:22:52;;;;;;;;;;;;;;;;;;5132336;27;879;-66
2023/01/05 11:25:20;;;;;;;;;;;;;;;;;;5113629;28;1037;-66
2023/01/05 11:27:45;;;;;;;;;;;;;;;;;;5113815;27;1202;-66
2023/01/05 11:30:13;;;;;;;;;;;;;;;;;;5132556;27;789;-66
2023/01/05 11:32:39;;;;;;;;;;;;;;;;;;5110180;28;1971;-66
2023/01/05 11:35:15;;;;;;;;;;;;;;;;;;5109825;28;1210;-66
2023/01/05 11:37:43;;;;;;;;;;;;;;;;;;5110348;28;1337;-66
2023/01/05 11:40:13;;;;;;;;;;;;;;;;;;5109964;28;1309;-66
2023/01/05 11:42:42;;;;;;;;;;;;;;;;;;5110105;28;1192;-66
2023/01/05 11:45:19;;;;;;;;;;;;;;;;;;5111420;28;833;-66
2023/01/05 11:47:47;;;;;;;;;;;;;;;;;;5110145;28;1428;-66
2023/01/05 11:50:13;;;;;;;;;;;;;;;;;;5109726;28;1333;-66
2023/01/05 11:52:40;;;;;;;;;;;;;;;;;;5110296;28;1921;-66
2023/01/05 11:55:21;;;;;;;;;;;;;;;;;;5111738;28;891;-70
2023/01/05 11:57:47;;;;;;;;;;;;;;;;;;5111922;28;879;-70
2023/01/05 12:00:25;;;;;;;;;;;;;;;;;;5110012;28;1356;-70
2023/01/05 12:02:59;;;;;;;;;;;;;;;;;;5111359;28;911;-66
2023/01/05 12:05:29;;;;;;;;;;;;;;;;;;5111421;28;840;-66
2023/01/05 12:08:00;;;;;;;;;;;;;;;;;;5110993;28;825;-67
2023/01/05 12:10:43;;;;;;;;;;;;;;;;;;5111102;28;831;-67
2023/01/05 12:13:26;;;;;;;;;;;;;;;;;;5110228;28;1320;-66
2023/01/05 12:16:06;;;;;;;;;;;;;;;;;;5110114;28;1194;-66
2023/01/05 12:18:37;;;;;;;;;;;;;;;;;;5111473;28;910;-67
2023/01/05 12:21:13;;;;;;;;;;;;;;;;;;5110483;28;1369;-66
2023/01/05 12:23:39;;;;;;;;;;;;;;;;;;5110347;28;1127;-67
2023/01/05 12:26:20;;;;;;;;;;;;;;;;;;5109317;28;1333;-67
2023/01/05 12:29:00;;;;;;;;;;;;;;;;;;5111316;28;1325;-66
2023/01/05 12:31:25;;;;;;;;;;;;;;;;;;5114616;28;1949;-66
2023/01/05 12:34:16;;;;;;;;;;;;;;;;;;5133080;27;1186;-66
2023/01/05 12:36:50;;;;;;;;;;;;;;;;;;5119262;27;1360;-66
2023/01/05 12:39:41;;;;;;;;;;;;;;;;;;5138398;27;812;-66
2023/01/05 12:42:26;;;;;;;;;;;;;;;;;;5119874;27;1371;-66
2023/01/05 12:45:24;;;;;;;;;;;;;;;;;;5120095;27;1170;-66
2023/01/05 12:47:49;;;;;;;;;;;;;;;;;;5075147;27;1284;-66
2023/01/05 12:50:20;;;;;;;;;;;;;;;;;;5119231;27;1277;-66
2023/01/05 12:52:48;;;;;;;;;;;;;;;;;;5119452;27;1960;-67
2023/01/05 12:55:19;;;;;;;;;;;;;;;;;;5138068;27;875;-67
2023/01/05 12:57:57;;;;;;;;;;;;;;;;;;5137760;27;896;-67
2023/01/05 13:00:24;;;;;;;;;;;;;;;;;;5118850;27;1183;-66
2023/01/05 13:02:59;;;;;;;;;;;;;;;;;;5136540;27;848;-66
2023/01/05 13:05:38;;;;;;;;;;;;;;;;;;5136617;27;991;-67
2023/01/05 13:08:03;;;;;;;;;;;;;;;;;;5136370;27;1154;-66
2023/01/05 13:10:32;;;;;;;;;;;;;;;;;;5119263;27;1143;-67
2023/01/05 13:13:23;;;;;;;;;;;;;;;;;;5119809;27;1306;-66
2023/01/05 13:16:07;;;;;;;;;;;;;;;;;;5115692;27;1394;-67
2023/01/05 13:18:35;;;;;;;;;;;;;;;;;;5118270;27;1193;-67
2023/01/05 13:21:03;;;;;;;;;;;;;;;;;;5118669;27;1155;-67
2023/01/05 13:23:35;;;;;;;;;;;;;;;;;;5119525;27;1190;-67
2023/01/05 13:26:03;;;;;;;;;;;;;;;;;;5137269;27;817;-67
2023/01/05 13:28:29;;;;;;;;;;;;;;;;;;5119951;27;1138;-67
2023/01/05 13:31:03;;;;;;;;;;;;;;;;;;5118981;27;1889;-67
2023/01/05 13:33:35;;;;;;;;;;;;;;;;;;5118587;27;1452;-66
2023/01/05 13:36:05;;;;;;;;;;;;;;;;;;5119199;27;1246;-67
2023/01/05 13:38:33;;;;;;;;;;;;;;;;;;5117641;27;1439;-67
2023/01/05 13:41:08;;;;;;;;;;;;;;;;;;5136691;27;928;-66
2023/01/05 13:43:33;;;;;;;;;;;;;;;;;;5136094;27;1033;-67
2023/01/05 13:46:05;;;;;;;;;;;;;;;;;;5116720;27;1198;-67
2023/01/05 13:48:49;;;;;;;;;;;;;;;;;;5116034;27;1320;-66
2023/01/05 13:51:24;;;;;;;;;;;;;;;;;;5116573;27;1969;-67
2023/01/05 13:53:50;;;;;;;;;;;;;;;;;;5134798;27;852;-66
2023/01/05 13:56:22;;;;;;;;;;;;;;;;;;5135103;27;927;-67
2023/01/05 13:59:12;;;;;;;;;;;;;;;;;;5134281;27;867;-67
2023/01/05 14:01:39;;;;;;;;;;;;;;;;;;5116345;27;1163;-67
2023/01/05 14:04:14;;;;;;;;;;;;;;;;;;5116184;27;1312;-67
2023/01/05 14:06:43;;;;;;;;;;;;;;;;;;5116346;27;1178;-67
2023/01/05 14:09:14;;;;;;;;;;;;;;;;;;5115499;27;1036;-67
2023/01/05 14:11:59;;;;;;;;;;;;;;;;;;5116129;27;1975;-66
2023/01/05 14:14:26;;;;;;;;;;;;;;;;;;5115912;27;1268;-67
2023/01/05 14:16:52;;;;;;;;;;;;;;;;;;5115596;27;1196;-65
2023/01/05 14:19:21;;;;;;;;;;;;;;;;;;5115675;27;1032;-65
2023/01/05 14:21:49;;;;;;;;;;;;;;;;;;5133616;27;813;-68
2023/01/05 14:24:27;;;;;;;;;;;;;;;;;;5133539;27;918;-68
2023/01/05 14:26:58;;;;;;;;;;;;;;;;;;5114913;27;1329;-68
2023/01/05 14:29:42;;;;;;;;;;;;;;;;;;5114367;27;1430;-68
2023/01/05 14:32:08;;;;;;;;;;;;;;;;;;5132996;27;1902;-68
2023/01/05 14:34:34;;;;;;;;;;;;;;;;;;5114245;27;1360;-68
2023/01/05 14:37:01;;;;;;;;;;;;;;;;;;5097727;27;1312;-68
2023/01/05 14:39:33;;;;;;;;;;;;;;;;;;5133587;27;935;-68
2023/01/05 14:42:10;;;;;;;;;;;;;;;;;;5133440;27;880;-68
2023/01/05 14:44:42;;;;;;;;;;;;;;;;;;5132632;27;891;-71
2023/01/05 14:47:07;;;;;;;;;;;;;;;;;;5132917;27;821;-72
2023/01/05 14:49:37;;;;;;;;;;;;;;;;;;5133110;27;911;-69
2023/01/05 14:52:04;;;;;;;;;;;;;;;;;;5114357;27;1973;-69
2023/01/05 14:54:35;;;;;;;;;;;;;;;;;;5113491;27;1194;-65
2023/01/05 14:57:19;;;;;;;;;;;;;;;;;;5113973;27;1214;-65
2023/01/05 14:59:44;;;;;;;;;;;;;;;;;;5131761;27;904;-65
2023/01/05 15:02:19;;;;;;;;;;;;;;;;;;5112773;27;1329;-65
2023/01/05 15:04:44;;;;;;;;;;;;;;;;;;5132719;27;899;-65
2023/01/05 15:07:09;;;;;;;;;;;;;;;;;;5113955;27;1327;-65
2023/01/05 15:09:47;;;;;;;;;;;;;;;;;;5132296;27;995;-65
2023/01/05 15:12:18;;;;;;;;;;;;;;;;;;5114048;27;1944;-65
2023/01/05 15:15:00;;;;;;;;;;;;;;;;;;5132896;27;956;-65
2023/01/05 15:17:31;;;;;;;;;;;;;;;;;;5132275;27;832;-65
2023/01/05 15:20:05;;;;;;;;;;;;;;;;;;5131872;27;848;-64
2023/01/05 15:22:43;;;;;;;;;;;;;;;;;;5132417;27;931;-65
2023/01/05 15:25:19;;;;;;;;;;;;;;;;;;5113971;27;1194;-66
2023/01/05 15:27:57;;;;;;;;;;;;;;;;;;5133219;27;859;-67
2023/01/05 15:30:22;;;;;;;;;;;;;;;;;;5114209;27;1210;-66
2023/01/05 15:33:02;;;;;;;;;;;;;;;;;;5132683;27;1913;-67
2023/01/05 15:35:35;;;;;;;;;;;;;;;;;;5132824;27;974;-67
2023/01/05 15:38:20;;;;;;;;;;;;;;;;;;5132929;27;915;-67
2023/01/05 15:40:46;;;;;;;;;;;;;;;;;;5114526;28;1340;-67
2023/01/05 15:43:14;;;;;;;;;;;;;;;;;;5114105;27;1148;-64
2023/01/05 15:45:41;;;;;;;;;;;;;;;;;;5132362;28;974;-70
2023/01/05 15:48:27;;;;;;;;;;;;;;;;;;5113999;28;840;-70
2023/01/05 15:50:54;;;;;;;;;;;;;;;;;;5116675;28;1909;-70
2023/01/05 15:53:23;;;;;;;;;;;;;;;;;;5113618;28;1324;-71
2023/01/05 15:55:50;;;;;;;;;;;;;;;;;;5132155;28;817;-71
2023/01/05 15:58:16;;;;;;;;;;;;;;;;;;5113373;28;1261;-70
2023/01/05 16:00:42;;;;;;;;;;;;;;;;;;5131851;28;828;-69
2023/01/05 16:03:29;;;;;;;;;;;;;;;;;;5113250;28;1495;-70
2023/01/05 16:06:00;;;;;;;;;;;;;;;;;;5114213;27;1229;-70
2023/01/05 16:08:26;;;;;;;;;;;;;;;;;;5118088;27;1233;-69
2023/01/05 16:10:58;;;;;;;;;;;;;;;;;;5135771;27;1964;-69
2023/01/05 16:13:23;;;;;;;;;;;;;;;;;;5117723;27;1191;-68
2023/01/05 16:15:53;;;;;;;;;;;;;;;;;;5135782;27;852;-69
2023/01/05 16:18:22;;;;;;;;;;;;;;;;;;5136040;27;915;-68
2023/01/05 16:20:49;;;;;;;;;;;;;;;;;;5117447;27;1194;-69
2023/01/05 16:23:17;;;;;;;;;;;;;;;;;;5117267;27;1201;-69
2023/01/05 16:25:48;;;;;;;;;;;;;;;;;;5135896;27;899;-69
2023/01/05 16:28:16;;;;;;;;;;;;;;;;;;5117157;27;1247;-70
2023/01/05 16:30:42;;;;;;;;;;;;;;;;;;5117227;27;1941;-70
2023/01/05 16:33:10;;;;;;;;;;;;;;;;;;5116885;27;1261;-70
2023/01/05 16:36:01;;;;;;;;;;;;;;;;;;5135790;27;907;-70
2023/01/05 16:38:28;;;;;;;;;;;;;;;;;;5112395;27;1374;-69
2023/01/05 16:40:55;;;;;;;;;;;;;;;;;;5116950;27;1226;-69
2023/01/05 16:43:20;;;;;;;;;;;;;;;;;;5135458;27;900;-70
2023/01/05 16:45:48;;;;;;;;;;;;;;;;;;5117032;27;1221;-69
2023/01/05 16:48:32;;;;;;;;;;;;;;;;;;5099949;27;1484;-70
2023/01/05 16:51:00;;;;;;;;;;;;;;;;;;5135168;27;1913;-69
2023/01/05 16:53:25;;;;;;;;;;;;;;;;;;5135608;27;879;-69
2023/01/05 16:55:51;;;;;;;;;;;;;;;;;;5116732;27;1301;-69
2023/01/05 16:58:28;;;;;;;;;;;;;;;;;;5116640;27;891;-70
2023/01/05 17:01:12;;;;;;;;;;;;;;;;;;5116493;27;1218;-69
2023/01/05 17:03:37;;;;;;;;;;;;;;;;;;5117586;27;1192;-70
2023/01/05 17:06:03;;;;;;;;;;;;;;;;;;5135320;27;820;-69
2023/01/05 17:08:30;;;;;;;;;;;;;;;;;;5117398;27;864;-70
2023/01/05 17:10:57;;;;;;;;;;;;;;;;;;5117031;27;1961;-70
2023/01/05 17:13:24;;;;;;;;;;;;;;;;;;5135788;27;809;-69
2023/01/05 17:15:51;;;;;;;;;;;;;;;;;;5116680;27;1198;-69
2023/01/05 17:18:21;;;;;;;;;;;;;;;;;;5134182;27;848;-69
2023/01/05 17:20:47;;;;;;;;;;;;;;;;;;5134807;27;840;-69
2023/01/05 17:23:21;;;;;;;;;;;;;;;;;;5116734;27;1465;-69
2023/01/05 17:25:47;;;;;;;;;;;;;;;;;;5135286;27;864;-69
2023/01/05 17:28:13;;;;;;;;;;;;;;;;;;5116153;27;1440;-69
2023/01/05 17:30:38;;;;;;;;;;;;;;;;;;5116539;27;1206;-69
2023/01/05 17:33:05;;;;;;;;;;;;;;;;;;5133868;27;1947;-69
2023/01/05 17:35:30;;;;;;;;;;;;;;;;;;5115866;27;1143;-69
2023/01/05 17:37:55;;;;;;;;;;;;;;;;;;5115996;27;1252;-65
2023/01/05 17:40:21;;;;;;;;;;;;;;;;;;5115963;27;1274;-65
2023/01/05 17:42:46;;;;;;;;;;;;;;;;;;5115663;27;1144;-65
2023/01/05 17:45:14;;;;;;;;;;;;;;;;;;5134353;27;824;-65
2023/01/05 17:47:39;;;;;;;;;;;;;;;;;;5134378;27;974;-65
2023/01/05 17:50:05;;;;;;;;;;;;;;;;;;5098656;27;1320;-65
2023/01/05 17:52:30;;;;;;;;;;;;;;;;;;5134183;27;1897;-66
2023/01/05 17:54:55;;;;;;;;;;;;;;;;;;5098691;27;1318;-65